Time;durP1;ratioP1;P1;durP2;ratioP2;P2;SDS_P1;SDS_P2;PMS_P1;PMS_P2;Temp;Humidity;BMP_temperature;BMP_pressure;BME280_temperature;BME280_humidity;BME280_pressure;Samples;Min_cycle;Max_cycle;Signal;HPM_P1;HPM_P2
2022/07/18 00:01:08;;;;;;;3.42;1.90;;;24.70;38.50;26.10;101600.00;;;;5087764;28;20584;-45
2022/07/18 00:03:34;;;;;;;2.22;1.80;;;24.70;38.40;26.10;101601.00;;;;5087647;28;20273;-45
2022/07/18 00:05:59;;;;;;;2.15;1.80;;;24.60;38.40;26.10;101600.00;;;;5087159;28;20562;-44
2022/07/18 00:08:25;;;;;;;3.42;2.05;;;24.60;38.40;26.10;101603.00;;;;5086150;28;20193;-46
2022/07/18 00:10:51;;;;;;;2.63;1.90;;;24.60;38.40;26.00;101592.00;;;;5087472;28;20255;-45
2022/07/18 00:13:17;;;;;;;2.60;1.90;;;24.60;38.40;26.00;101604.00;;;;5087350;28;20197;-45
2022/07/18 00:15:42;;;;;;;2.55;1.80;;;24.50;38.50;26.00;101601.00;;;;5087612;28;20173;-45
2022/07/18 00:18:08;;;;;;;3.22;1.98;;;24.60;38.50;26.00;101596.00;;;;5086999;28;20234;-45
2022/07/18 00:20:34;;;;;;;2.03;1.83;;;24.60;38.30;26.00;101597.00;;;;5087840;28;20169;-44
2022/07/18 00:22:59;;;;;;;2.73;1.70;;;24.50;38.50;25.90;101596.00;;;;5087200;28;20177;-45
2022/07/18 00:25:25;;;;;;;2.87;2.03;;;24.50;38.30;25.90;101588.00;;;;5087214;28;20192;-44
2022/07/18 00:27:51;;;;;;;2.50;1.90;;;24.50;38.50;25.90;101602.00;;;;5086888;28;20185;-44
2022/07/18 00:30:17;;;;;;;2.40;1.80;;;24.50;38.20;25.90;101595.00;;;;5087314;28;20169;-45
2022/07/18 00:32:42;;;;;;;2.25;1.70;;;24.50;38.50;25.90;101592.00;;;;5087215;28;20183;-46
2022/07/18 00:35:08;;;;;;;1.98;1.77;;;24.40;38.50;25.90;101598.00;;;;5087277;28;20169;-45
2022/07/18 00:37:34;;;;;;;2.20;1.90;;;24.50;38.50;25.80;101600.00;;;;5086772;28;20189;-44
2022/07/18 00:40:00;;;;;;;3.53;1.80;;;24.40;38.30;25.80;101597.00;;;;5087216;28;20196;-45
2022/07/18 00:42:26;;;;;;;3.23;2.00;;;24.50;38.50;25.80;101602.00;;;;5087054;28;20169;-45
2022/07/18 00:44:55;;;;;;;2.13;1.80;;;24.50;38.70;25.80;101593.00;;;;5087018;28;20169;-43
2022/07/18 00:47:21;;;;;;;2.20;1.92;;;24.50;38.90;25.80;101595.00;;;;5086950;28;20161;-43
2022/07/18 00:49:46;;;;;;;2.65;2.00;;;24.50;40.00;25.80;101600.00;;;;5087206;28;20173;-45
2022/07/18 00:52:12;;;;;;;2.57;1.83;;;24.50;40.20;25.80;101596.00;;;;5086802;28;20191;-43
2022/07/18 00:54:39;;;;;;;1.98;1.70;;;24.50;40.40;25.80;101592.00;;;;5086791;28;20200;-44
2022/07/18 00:57:04;;;;;;;2.65;2.00;;;24.50;40.80;25.80;101600.00;;;;5085496;28;20754;-45
2022/07/18 01:02:15;;;;;;;2.55;1.92;;;24.60;41.30;25.80;101582.00;;;;5085873;28;20187;-44
2022/07/18 01:04:41;;;;;;;2.35;1.90;;;24.50;41.20;25.80;101580.00;;;;5086547;28;20201;-43
2022/07/18 01:07:06;;;;;;;2.10;2.00;;;24.60;41.50;25.80;101576.00;;;;5086591;28;20220;-43
2022/07/18 01:09:32;;;;;;;2.47;1.80;;;24.50;41.50;25.80;101573.00;;;;5086105;28;20249;-45
2022/07/18 01:11:58;;;;;;;2.30;2.00;;;24.60;41.60;25.80;101584.00;;;;5086481;28;20172;-43
2022/07/18 01:14:24;;;;;;;2.00;1.80;;;24.60;42.40;25.80;101569.00;;;;5085293;28;20709;-44
2022/07/18 01:16:49;;;;;;;1.93;1.80;;;24.60;41.90;25.80;101585.00;;;;5084000;28;20241;-46
2022/07/18 01:19:15;;;;;;;2.40;2.00;;;24.60;42.10;25.80;101576.00;;;;5086212;28;20669;-45
2022/07/18 01:21:41;;;;;;;2.07;1.80;;;24.60;42.10;25.80;101577.00;;;;5086333;28;20164;-44
2022/07/18 01:24:07;;;;;;;1.97;1.87;;;24.60;42.30;25.80;101582.00;;;;5086316;28;20176;-45
2022/07/18 01:26:33;;;;;;;2.17;1.80;;;24.60;42.40;25.80;101579.00;;;;5086309;28;20181;-45
2022/07/18 01:28:59;;;;;;;2.40;2.00;;;24.60;42.30;25.80;101577.00;;;;5086061;28;20184;-45
2022/07/18 01:31:25;;;;;;;2.23;1.70;;;24.60;42.50;25.80;101583.00;;;;5086199;28;20513;-45
2022/07/18 01:33:54;;;;;;;2.20;2.00;;;24.60;42.50;25.80;101579.00;;;;5091082;28;20207;-46
2022/07/18 01:36:20;;;;;;;2.07;1.87;;;24.50;42.60;25.80;101582.00;;;;5091742;28;20165;-45
2022/07/18 01:38:46;;;;;;;3.37;2.23;;;24.50;42.70;25.70;101588.00;;;;5087507;28;20237;-45
2022/07/18 01:41:11;;;;;;;2.73;2.00;;;24.60;42.80;25.70;101588.00;;;;5086544;28;20204;-46
2022/07/18 01:43:41;;;;;;;2.73;2.00;;;24.60;42.90;25.70;101588.00;;;;5086804;28;20164;-45
2022/07/18 01:46:09;;;;;;;2.40;2.20;;;24.50;42.80;25.70;101600.00;;;;5087429;28;20642;-46
2022/07/18 01:48:38;;;;;;;3.60;2.17;;;24.50;42.90;25.70;101585.00;;;;5085789;28;20188;-46
2022/07/18 01:51:04;;;;;;;2.10;1.90;;;24.50;43.10;25.70;101584.00;;;;5085168;28;20246;-45
2022/07/18 01:53:30;;;;;;;3.17;2.27;;;24.50;43.10;25.70;101587.00;;;;5086173;28;20671;-44
2022/07/18 01:55:55;;;;;;;2.13;1.90;;;24.50;43.20;25.70;101591.00;;;;5085860;28;20161;-43
2022/07/18 01:58:21;;;;;;;2.83;2.10;;;24.50;43.30;25.60;101585.00;;;;5085751;28;20692;-44
2022/07/18 02:00:47;;;;;;;3.07;2.20;;;24.50;43.30;25.60;101576.00;;;;5085912;28;20176;-45
2022/07/18 02:03:12;;;;;;;2.20;2.00;;;24.50;43.40;25.60;101575.00;;;;5085733;28;20207;-43
2022/07/18 02:05:38;;;;;;;2.33;1.97;;;24.50;43.40;25.60;101585.00;;;;5084648;28;20172;-45
2022/07/18 02:08:04;;;;;;;2.10;1.90;;;24.50;43.50;25.60;101575.00;;;;5085770;28;20695;-44
2022/07/18 02:10:30;;;;;;;2.33;2.00;;;24.50;43.50;25.60;101588.00;;;;5085964;28;20169;-46
2022/07/18 02:12:56;;;;;;;2.20;1.80;;;24.50;43.60;25.60;101582.00;;;;5085659;28;20173;-44
2022/07/18 02:15:21;;;;;;;2.90;2.13;;;24.50;43.70;25.60;101589.00;;;;5085702;28;20169;-45
2022/07/18 02:17:47;;;;;;;3.30;2.10;;;24.40;43.60;25.50;101590.00;;;;5085013;28;20197;-45
2022/07/18 02:20:14;;;;;;;2.17;1.97;;;24.40;43.60;25.50;101582.00;;;;5085819;28;20219;-45
2022/07/18 02:22:40;;;;;;;2.30;2.10;;;24.40;43.70;25.50;101572.00;;;;5086114;28;20177;-44
2022/07/18 02:25:06;;;;;;;2.30;2.00;;;24.40;43.80;25.50;101579.00;;;;5085601;28;20238;-46
2022/07/18 02:27:32;;;;;;;3.17;2.30;;;24.40;43.80;25.50;101578.00;;;;5086290;28;20224;-45
2022/07/18 02:29:57;;;;;;;3.00;2.20;;;24.40;43.90;25.50;101577.00;;;;5089802;28;20697;-45
2022/07/18 02:32:23;;;;;;;2.30;2.10;;;24.40;43.90;25.50;101573.00;;;;5090115;28;20180;-45
2022/07/18 02:34:49;;;;;;;2.73;2.40;;;24.30;43.90;25.50;101566.00;;;;5089508;28;20246;-44
2022/07/18 02:37:15;;;;;;;5.23;2.40;;;24.30;44.00;25.40;101573.00;;;;5089346;28;20161;-45
2022/07/18 02:39:41;;;;;;;3.70;2.10;;;24.30;44.00;25.40;101566.00;;;;5089326;28;20189;-44
2022/07/18 02:42:06;;;;;;;3.63;2.20;;;24.30;44.10;25.40;101567.00;;;;5089587;28;20258;-45
2022/07/18 02:44:32;;;;;;;5.40;2.17;;;24.30;44.20;25.40;101567.00;;;;5089554;28;20664;-45
2022/07/18 02:46:58;;;;;;;2.13;1.97;;;24.30;44.20;25.40;101577.00;;;;5089845;28;20176;-45
2022/07/18 02:49:26;;;;;;;3.97;2.03;;;24.20;44.30;25.40;101573.00;;;;5088790;28;20185;-44
2022/07/18 02:52:05;;;;;;;2.77;2.00;;;24.20;44.20;25.30;101576.00;;;;5089204;28;20584;-46
2022/07/18 02:54:33;;;;;;;3.70;2.00;;;24.20;44.10;25.30;101568.00;;;;5089430;28;20659;-43
2022/07/18 02:56:59;;;;;;;3.67;1.83;;;24.20;44.20;25.30;101570.00;;;;5089206;28;20256;-44
2022/07/18 02:59:26;;;;;;;4.80;2.13;;;24.20;44.30;25.30;101572.00;;;;5088800;28;20280;-44
2022/07/18 03:01:51;;;;;;;2.60;2.00;;;24.20;44.40;25.30;101565.00;;;;5089155;28;20177;-45
2022/07/18 03:04:18;;;;;;;4.37;2.03;;;24.10;44.30;25.30;101568.00;;;;5089221;28;20241;-45
2022/07/18 03:06:44;;;;;;;2.20;2.00;;;24.20;44.40;25.20;101572.00;;;;5089019;28;20165;-45
2022/07/18 03:09:10;;;;;;;2.43;2.00;;;24.10;44.40;25.20;101562.00;;;;5089042;28;20189;-44
2022/07/18 03:11:35;;;;;;;3.47;2.30;;;24.10;44.70;25.20;101569.00;;;;5088969;28;20686;-44
2022/07/18 03:14:01;;;;;;;3.30;2.33;;;24.10;44.70;25.20;101561.00;;;;5088813;28;20208;-44
2022/07/18 03:16:27;;;;;;;3.10;2.17;;;24.00;44.80;25.10;101572.00;;;;5088882;28;20173;-45
2022/07/18 03:18:53;;;;;;;2.20;2.00;;;24.00;44.80;25.10;101571.00;;;;5088201;28;20623;-46
2022/07/18 03:21:19;;;;;;;3.03;2.10;;;23.90;44.90;25.10;101568.00;;;;5088728;28;20178;-45
2022/07/18 03:23:45;;;;;;;2.70;2.07;;;23.90;45.00;25.10;101564.00;;;;5088720;28;20299;-45
2022/07/18 03:26:11;;;;;;;2.77;2.27;;;23.90;45.00;25.00;101559.00;;;;5087412;28;20592;-44
2022/07/18 03:28:36;;;;;;;2.83;2.27;;;23.80;45.00;25.00;101560.00;;;;5094458;28;20388;-46
2022/07/18 03:31:03;;;;;;;3.60;2.07;;;23.80;45.30;25.00;101561.00;;;;5092651;28;20255;-45
2022/07/18 03:33:29;;;;;;;3.77;2.10;;;23.80;45.20;24.90;101561.00;;;;5088685;28;20287;-44
2022/07/18 03:35:55;;;;;;;2.63;2.13;;;23.80;45.20;24.90;101556.00;;;;5088267;28;20307;-43
2022/07/18 03:38:20;;;;;;;2.27;2.07;;;23.80;45.10;24.90;101550.00;;;;5080062;28;20778;-45
2022/07/18 03:40:46;;;;;;;2.43;1.90;;;23.70;45.70;24.90;101549.00;;;;5075431;28;20759;-45
2022/07/18 03:43:12;;;;;;;2.77;1.90;;;23.70;45.70;24.80;101537.00;;;;5067991;28;20202;-43
2022/07/18 03:45:38;;;;;;;2.97;2.20;;;23.70;45.60;24.80;101545.00;;;;5066336;28;20252;-44
2022/07/18 03:48:03;;;;;;;2.47;2.10;;;23.60;45.70;24.80;101548.00;;;;5068165;28;20205;-46
2022/07/18 03:50:30;;;;;;;3.83;2.00;;;23.50;45.80;24.70;101547.00;;;;5068521;28;20714;-44
2022/07/18 03:52:56;;;;;;;2.47;2.23;;;23.50;45.80;24.70;101551.00;;;;5067870;28;20169;-44
2022/07/18 03:55:22;;;;;;;2.30;2.10;;;23.50;45.70;24.70;101547.00;;;;5069212;28;20261;-45
2022/07/18 03:57:47;;;;;;;2.67;2.07;;;23.50;45.70;24.70;101543.00;;;;5068329;28;20202;-45
2022/07/18 04:00:13;;;;;;;3.17;2.20;;;23.50;45.70;24.60;101553.00;;;;5067782;28;20317;-44
2022/07/18 04:02:43;;;;;;;2.30;2.10;;;23.50;45.60;24.60;101549.00;;;;5067370;28;20177;-45
2022/07/18 04:05:10;;;;;;;2.27;2.00;;;23.40;45.60;24.60;101553.00;;;;5067736;28;20189;-44
2022/07/18 04:07:36;;;;;;;3.03;2.00;;;23.40;45.60;24.60;101553.00;;;;5068595;28;20413;-44
2022/07/18 04:10:02;;;;;;;3.67;2.20;;;23.40;45.60;24.50;101558.00;;;;5067534;28;20181;-44
2022/07/18 04:12:27;;;;;;;2.20;2.00;;;23.30;45.80;24.50;101567.00;;;;5066766;28;20188;-44
2022/07/18 04:14:53;;;;;;;3.37;2.00;;;23.30;46.10;24.40;101564.00;;;;5067386;28;20193;-45
2022/07/18 04:17:19;;;;;;;2.27;1.97;;;23.30;45.80;24.40;101492.00;;;;5066843;28;20173;-45
2022/07/18 04:19:44;;;;;;;2.27;1.90;;;23.30;45.70;24.40;101564.00;;;;5067060;28;20166;-44
2022/07/18 04:22:10;;;;;;;2.57;2.20;;;23.30;45.80;24.40;101567.00;;;;5066758;28;20185;-45
2022/07/18 04:24:36;;;;;;;2.30;2.00;;;23.30;45.80;24.40;101563.00;;;;5066843;28;20193;-45
2022/07/18 04:27:02;;;;;;;3.10;2.10;;;23.30;45.80;24.40;101555.00;;;;5071972;28;20174;-44
2022/07/18 04:29:28;;;;;;;3.10;2.10;;;23.30;45.80;24.40;101562.00;;;;5071119;28;20572;-44
2022/07/18 04:31:54;;;;;;;4.83;2.33;;;23.20;46.20;24.30;101554.00;;;;5066364;28;20169;-45
2022/07/18 04:34:20;;;;;;;2.50;2.27;;;23.20;46.20;24.30;101554.00;;;;5066621;28;20556;-44
2022/07/18 04:36:46;;;;;;;2.40;2.00;;;23.20;46.20;24.30;101553.00;;;;5066888;28;20559;-44
2022/07/18 04:39:11;;;;;;;2.60;2.20;;;23.20;46.20;24.30;101545.00;;;;5065859;28;20197;-43
2022/07/18 04:41:37;;;;;;;4.73;2.10;;;23.20;46.10;24.30;101543.00;;;;5066209;28;20178;-43
2022/07/18 04:44:03;;;;;;;3.77;2.30;;;23.20;46.80;24.30;101547.00;;;;5066744;28;20166;-47
2022/07/18 04:46:29;;;;;;;4.23;2.00;;;23.20;46.80;24.30;101549.00;;;;5066258;28;20184;-46
2022/07/18 04:48:54;;;;;;;3.07;1.97;;;23.20;47.20;24.30;101545.00;;;;5066037;28;20194;-43
2022/07/18 04:51:20;;;;;;;2.30;2.00;;;23.20;46.90;24.30;101549.00;;;;5066151;28;20169;-45
2022/07/18 04:53:46;;;;;;;3.83;2.27;;;23.30;46.80;24.30;101545.00;;;;5066226;28;20224;-45
2022/07/18 04:56:11;;;;;;;2.20;1.90;;;23.20;46.20;24.30;101551.00;;;;5066364;28;20169;-44
2022/07/18 04:58:37;;;;;;;2.57;2.17;;;23.20;46.50;24.30;101552.00;;;;5066069;28;20195;-45
2022/07/18 05:01:03;;;;;;;2.10;1.90;;;23.20;46.20;24.30;101547.00;;;;5066025;28;20260;-45
2022/07/18 05:03:29;;;;;;;2.47;2.20;;;23.20;46.20;24.30;101552.00;;;;5066196;28;20264;-44
2022/07/18 05:05:54;;;;;;;3.20;2.10;;;23.30;46.20;24.30;101551.00;;;;5066392;28;20635;-45
2022/07/18 05:08:20;;;;;;;3.63;2.00;;;23.30;45.90;24.30;101550.00;;;;5066013;28;20201;-44
2022/07/18 05:10:46;;;;;;;1.83;1.73;;;23.20;45.40;24.20;101545.00;;;;5066112;28;20186;-43
2022/07/18 05:13:12;;;;;;;2.10;1.90;;;23.20;44.80;24.20;101545.00;;;;5066126;28;20278;-45
2022/07/18 05:15:37;;;;;;;3.23;1.93;;;23.20;43.90;24.20;101532.00;;;;5065860;28;20166;-44
2022/07/18 05:18:03;;;;;;;3.80;1.90;;;23.20;43.90;24.20;101537.00;;;;5065340;28;20182;-44
2022/07/18 05:20:29;;;;;;;1.90;1.70;;;23.10;43.50;24.20;101543.00;;;;5065998;28;20170;-43
2022/07/18 05:22:54;;;;;;;2.23;1.87;;;23.10;43.00;24.20;101535.00;;;;5074236;28;20223;-44
2022/07/18 05:25:24;;;;;;;3.43;2.13;;;23.10;43.50;24.10;101534.00;;;;5069663;28;20196;-43
2022/07/18 05:27:50;;;;;;;2.83;1.90;;;23.10;43.50;24.20;101542.00;;;;5065648;28;20197;-44
2022/07/18 05:30:16;;;;;;;2.13;1.93;;;23.10;43.30;24.10;101544.00;;;;5066011;28;20170;-46
2022/07/18 05:32:43;;;;;;;2.70;1.80;;;23.10;42.70;24.10;101536.00;;;;5065612;28;20686;-45
2022/07/18 05:35:09;;;;;;;1.80;1.70;;;23.10;42.70;24.10;101538.00;;;;5065491;28;20193;-43
2022/07/18 05:37:36;;;;;;;2.47;2.00;;;23.00;42.50;24.00;101545.00;;;;5065046;28;20189;-44
2022/07/18 05:40:03;;;;;;;2.70;2.03;;;23.10;42.40;24.00;101544.00;;;;5065993;28;20691;-44
2022/07/18 05:42:29;;;;;;;3.53;2.00;;;23.00;42.50;24.10;101541.00;;;;5065713;28;20176;-44
2022/07/18 05:44:55;;;;;;;2.40;1.90;;;23.10;42.70;24.10;101540.00;;;;5065756;28;20162;-44
2022/07/18 05:47:21;;;;;;;2.80;1.83;;;23.10;42.70;24.10;101534.00;;;;5065437;28;20226;-44
2022/07/18 05:49:47;;;;;;;2.47;1.70;;;23.20;43.00;24.00;101541.00;;;;5065926;28;20177;-45
2022/07/18 05:52:12;;;;;;;2.07;1.80;;;23.10;42.80;24.00;101543.00;;;;5065960;28;20226;-45
2022/07/18 05:54:38;;;;;;;1.77;1.67;;;23.20;42.90;24.00;101541.00;;;;5065498;28;20273;-44
2022/07/18 05:57:04;;;;;;;2.37;1.93;;;23.20;42.80;24.00;101545.00;;;;5065728;28;20166;-45
2022/07/18 05:59:30;;;;;;;1.80;1.70;;;23.20;42.90;24.00;101539.00;;;;5065252;28;20186;-44
2022/07/18 06:01:56;;;;;;;2.43;1.87;;;23.20;43.00;24.00;101536.00;;;;5065538;28;20849;-43
2022/07/18 06:04:22;;;;;;;2.20;1.83;;;23.20;43.00;24.00;101541.00;;;;5069666;28;20169;-44
2022/07/18 06:06:49;;;;;;;2.80;1.90;;;23.20;43.20;24.00;101538.00;;;;5069754;28;20193;-44
2022/07/18 06:09:16;;;;;;;2.20;2.00;;;23.20;43.00;24.00;101540.00;;;;5069777;28;20196;-44
2022/07/18 06:11:41;;;;;;;2.63;1.80;;;23.20;43.40;24.00;101532.00;;;;5069325;28;20177;-45
2022/07/18 06:14:07;;;;;;;3.93;2.13;;;23.20;43.30;24.00;101520.00;;;;5069468;28;20196;-45
2022/07/18 06:16:33;;;;;;;2.20;2.00;;;23.20;43.30;24.00;101527.00;;;;5069642;28;20174;-46
2022/07/18 06:18:59;;;;;;;3.03;2.00;;;23.20;43.40;24.00;101521.00;;;;5069634;28;20185;-46
2022/07/18 06:21:25;;;;;;;3.03;2.03;;;23.20;43.70;24.00;101524.00;;;;5068581;28;20168;-44
2022/07/18 06:23:51;;;;;;;3.03;2.10;;;23.10;43.60;24.00;101524.00;;;;5069322;28;20170;-44
2022/07/18 06:26:16;;;;;;;2.07;1.63;;;23.10;43.40;24.00;101518.00;;;;5069301;28;20249;-45
2022/07/18 06:28:42;;;;;;;1.93;1.70;;;23.10;43.40;24.00;101514.00;;;;5070432;28;20776;-45
2022/07/18 06:31:08;;;;;;;2.03;1.63;;;23.10;44.20;24.00;101517.00;;;;5070096;28;20717;-44
2022/07/18 06:33:33;;;;;;;2.77;2.00;;;23.10;43.80;23.90;101511.00;;;;5072147;28;20808;-45
2022/07/18 06:35:59;;;;;;;2.40;1.80;;;23.10;43.60;23.90;101515.00;;;;5068920;28;20247;-45
2022/07/18 06:38:25;;;;;;;2.10;1.90;;;23.10;43.60;23.90;101507.00;;;;5068549;28;20189;-45
2022/07/18 06:40:51;;;;;;;2.57;1.90;;;23.10;43.80;23.90;101510.00;;;;5068902;28;20162;-46
2022/07/18 06:43:19;;;;;;;2.47;2.00;;;23.10;43.70;23.90;101505.00;;;;5068824;28;20176;-45
2022/07/18 06:45:48;;;;;;;2.07;1.90;;;23.10;43.80;23.90;101509.00;;;;5069051;28;20231;-44
2022/07/18 06:48:14;;;;;;;2.43;1.83;;;23.10;43.90;23.90;101507.00;;;;5068731;28;20201;-44
2022/07/18 06:50:40;;;;;;;3.50;1.90;;;23.10;43.90;23.90;101511.00;;;;5068219;28;20170;-44
2022/07/18 06:53:06;;;;;;;2.70;1.80;;;23.00;43.80;23.90;101503.00;;;;5068399;28;20181;-45
2022/07/18 06:55:32;;;;;;;2.20;1.80;;;23.00;43.80;23.90;101508.00;;;;5068600;28;20180;-44
2022/07/18 06:57:57;;;;;;;3.67;1.90;;;23.00;43.90;23.90;101513.00;;;;5069981;28;20246;-45
2022/07/18 07:00:23;;;;;;;1.97;1.80;;;23.10;44.10;23.90;101506.00;;;;5071955;28;20176;-44
2022/07/18 07:02:49;;;;;;;2.13;1.90;;;23.10;43.90;23.90;101509.00;;;;5069787;28;20703;-45
2022/07/18 07:05:17;;;;;;;3.70;1.93;;;23.10;44.00;24.00;101514.00;;;;5069891;28;20648;-45
2022/07/18 07:07:43;;;;;;;4.80;2.03;;;23.10;44.00;24.00;101501.00;;;;5067656;28;20221;-43
2022/07/18 07:10:09;;;;;;;2.70;1.80;;;23.10;43.90;24.00;101509.00;;;;5068661;28;20165;-42
2022/07/18 07:12:42;;;;;;;3.30;1.90;;;23.20;44.20;24.00;101513.00;;;;5068742;28;20178;-42
2022/07/18 07:15:09;;;;;;;3.37;2.03;;;23.20;44.60;24.00;101512.00;;;;5067378;28;20292;-43
2022/07/18 07:17:35;;;;;;;5.00;2.00;;;23.20;45.40;24.00;101450.00;;;;5068526;28;20672;-42
2022/07/18 07:20:02;;;;;;;2.87;1.80;;;23.30;45.20;24.00;101512.00;;;;5068569;28;20162;-42
2022/07/18 07:22:28;;;;;;;2.83;1.80;;;23.30;45.40;24.10;101510.00;;;;5068381;28;20146;-41
2022/07/18 07:24:54;;;;;;;2.37;1.90;;;23.30;45.10;24.10;101510.00;;;;5028070;28;20231;-41
2022/07/18 07:27:20;;;;;;;5.90;2.00;;;23.30;45.10;24.10;101513.00;;;;5110396;28;20226;-41
2022/07/18 07:29:45;;;;;;;3.60;2.13;;;23.40;45.40;24.20;101510.00;;;;5120328;28;20168;-41
2022/07/18 07:32:11;;;;;;;4.90;2.20;;;23.40;45.70;24.20;101497.00;;;;5112318;28;20168;-41
2022/07/18 07:34:37;;;;;;;8.73;2.70;;;23.40;46.60;24.20;101503.00;;;;5108537;28;20635;-40
2022/07/18 07:37:03;;;;;;;9.30;3.03;;;23.40;47.30;24.30;101497.00;;;;5110738;28;20218;-41
2022/07/18 07:39:28;;;;;;;18.27;3.60;;;23.40;47.70;24.30;101502.00;;;;5108782;28;20180;-42
2022/07/18 07:41:54;;;;;;;14.40;3.10;;;23.50;48.50;24.30;101495.00;;;;5098896;28;20208;-41
2022/07/18 07:44:20;;;;;;;19.20;3.10;;;23.40;49.10;24.30;101494.00;;;;5087869;28;20234;-42
2022/07/18 07:46:45;;;;;;;13.13;3.10;;;23.50;49.10;24.30;101486.00;;;;5088371;28;20177;-42
2022/07/18 07:49:11;;;;;;;12.80;2.80;;;23.50;48.80;24.30;101493.00;;;;5087703;28;20251;-42
2022/07/18 07:51:37;;;;;;;10.73;2.80;;;23.50;49.40;24.30;101494.00;;;;5088364;28;20195;-41
2022/07/18 07:54:05;;;;;;;8.67;2.70;;;23.50;48.90;24.30;101485.00;;;;5088224;28;20207;-42
2022/07/18 07:56:31;;;;;;;15.50;3.17;;;23.50;49.10;24.30;101491.00;;;;5088357;28;20631;-42
2022/07/18 07:58:57;;;;;;;9.57;2.70;;;23.50;49.10;24.40;101482.00;;;;5088176;28;20211;-42
2022/07/18 08:01:23;;;;;;;7.83;2.53;;;23.50;49.10;24.40;101490.00;;;;5087840;28;20172;-41
2022/07/18 08:03:49;;;;;;;9.77;3.00;;;23.50;49.10;24.40;101490.00;;;;5087863;28;20241;-43
2022/07/18 08:06:15;;;;;;;8.87;2.90;;;23.50;49.00;24.40;101486.00;;;;5088361;28;20172;-41
2022/07/18 08:08:41;;;;;;;7.30;2.20;;;23.50;49.00;24.40;101479.00;;;;5088047;28;20532;-41
2022/07/18 08:11:07;;;;;;;7.57;2.80;;;23.50;49.00;24.40;101487.00;;;;5088064;28;20590;-41
2022/07/18 08:13:32;;;;;;;7.63;2.47;;;23.50;49.10;24.50;101479.00;;;;5087551;28;20689;-42
2022/07/18 08:15:58;;;;;;;5.47;2.30;;;23.50;49.00;24.50;101483.00;;;;5087453;28;20173;-42
2022/07/18 08:18:24;;;;;;;8.80;2.67;;;23.60;49.20;24.50;101482.00;;;;5087277;28;20610;-41
2022/07/18 08:20:50;;;;;;;4.17;2.20;;;23.60;49.10;24.30;101484.00;;;;5087312;28;20244;-42
2022/07/18 08:23:17;;;;;;;4.27;2.47;;;23.60;49.20;24.50;101479.00;;;;5087822;28;20545;-42
2022/07/18 08:25:44;;;;;;;5.27;2.30;;;23.60;49.20;24.50;101485.00;;;;5087122;28;20188;-42
2022/07/18 08:28:10;;;;;;;5.00;2.37;;;23.60;49.10;24.50;101488.00;;;;5087098;28;20188;-42
2022/07/18 08:30:37;;;;;;;5.93;2.43;;;23.60;49.10;24.50;101489.00;;;;5087281;28;20173;-41
2022/07/18 08:33:03;;;;;;;5.87;2.27;;;23.60;49.30;24.50;101502.00;;;;5087292;28;20197;-42
2022/07/18 08:35:29;;;;;;;4.60;2.10;;;23.60;49.20;24.60;101481.00;;;;5087047;28;20614;-42
2022/07/18 08:37:55;;;;;;;3.10;2.00;;;23.60;49.20;24.60;101484.00;;;;5087120;28;20192;-41
2022/07/18 08:40:21;;;;;;;2.83;1.97;;;23.60;49.30;24.60;101475.00;;;;5087179;28;20175;-41
2022/07/18 08:42:49;;;;;;;3.47;2.10;;;23.60;49.30;24.60;101481.00;;;;5087271;28;20218;-42
2022/07/18 08:45:15;;;;;;;4.10;2.27;;;23.60;49.30;24.60;101472.00;;;;5087108;28;20275;-42
2022/07/18 08:47:41;;;;;;;3.80;2.10;;;23.70;49.40;24.50;101471.00;;;;5086936;28;20268;-42
2022/07/18 08:50:08;;;;;;;4.67;2.00;;;23.70;49.40;24.60;101473.00;;;;5085381;28;20181;-42
2022/07/18 08:52:35;;;;;;;3.37;2.03;;;23.70;49.40;24.60;101477.00;;;;5087318;28;20229;-42
2022/07/18 08:55:01;;;;;;;3.30;2.07;;;23.70;49.50;24.60;101460.00;;;;5085781;28;20197;-42
2022/07/18 08:57:29;;;;;;;3.27;2.00;;;23.70;49.50;24.60;101471.00;;;;5086691;28;20201;-42
2022/07/18 08:59:54;;;;;;;4.10;2.03;;;23.70;49.60;24.60;101475.00;;;;5085333;28;20458;-42
2022/07/18 09:02:25;;;;;;;3.23;2.00;;;23.80;49.60;24.60;101462.00;;;;5085241;28;20193;-42
2022/07/18 09:04:51;;;;;;;4.23;1.80;;;23.80;49.70;24.70;101459.00;;;;5086859;28;20184;-42
2022/07/18 09:07:31;;;;;;;3.30;1.97;;;23.80;49.80;24.70;101457.00;;;;5085022;28;20355;-42
2022/07/18 09:09:59;;;;;;;3.07;2.10;;;23.80;49.80;24.70;101457.00;;;;5087065;28;20172;-41
2022/07/18 09:12:26;;;;;;;2.10;1.90;;;23.80;49.90;24.70;101456.00;;;;5086590;28;20169;-40
2022/07/18 09:14:52;;;;;;;3.00;2.00;;;23.90;50.00;24.70;101457.00;;;;5086578;28;20200;-41
2022/07/18 09:17:25;;;;;;;3.40;1.90;;;23.90;50.00;24.70;101457.00;;;;5086043;28;20706;-41
2022/07/18 09:20:08;;;;;;;2.07;1.80;;;23.90;50.00;24.80;101459.00;;;;5086389;28;20640;-41
2022/07/18 09:22:38;;;;;;;3.30;2.00;;;23.90;50.10;24.80;101467.00;;;;5086179;28;20221;-42
2022/07/18 09:25:12;;;;;;;2.27;1.77;;;23.90;50.10;24.80;101459.00;;;;5085979;28;20288;-41
2022/07/18 09:27:42;;;;;;;2.00;1.67;;;24.00;50.20;24.60;101457.00;;;;5085986;28;20189;-41
2022/07/18 09:30:28;;;;;;;2.77;1.80;;;24.00;50.40;24.80;101453.00;;;;5086206;28;20169;-42
2022/07/18 09:33:04;;;;;;;2.33;1.87;;;24.00;50.50;24.80;101463.00;;;;5086046;28;20157;-41
2022/07/18 09:35:44;;;;;;;2.10;1.87;;;24.00;50.50;24.80;101454.00;;;;5086259;28;20245;-43
2022/07/18 09:38:21;;;;;;;1.77;1.67;;;24.00;50.50;24.80;101457.00;;;;5085081;28;20202;-40
2022/07/18 09:40:52;;;;;;;1.70;1.60;;;24.10;50.70;24.80;101454.00;;;;5088554;28;20169;-44
2022/07/18 09:43:21;;;;;;;2.00;1.80;;;24.10;50.80;24.80;101460.00;;;;5087039;28;20164;-41
2022/07/18 09:45:49;;;;;;;3.20;2.10;;;24.00;50.70;24.90;101464.00;;;;5085744;28;20172;-41
2022/07/18 09:48:18;;;;;;;3.10;2.00;;;24.10;50.90;24.90;101459.00;;;;5085596;28;20184;-42
2022/07/18 09:51:07;;;;;;;3.03;1.90;;;24.10;50.90;24.90;101450.00;;;;5085720;28;20215;-41
2022/07/18 09:53:41;;;;;;;1.87;1.73;;;24.10;51.00;24.90;101456.00;;;;5086526;28;20185;-42
2022/07/18 09:56:13;;;;;;;2.50;2.03;;;24.20;51.00;24.90;101456.00;;;;5086087;28;20164;-42
2022/07/18 09:58:54;;;;;;;1.93;1.80;;;24.20;51.00;24.90;101457.00;;;;5085748;28;20192;-42
2022/07/18 10:01:20;;;;;;;1.80;1.70;;;24.20;51.20;25.00;101455.00;;;;5086371;28;20168;-41
2022/07/18 10:03:45;;;;;;;2.33;1.90;;;24.30;51.20;25.00;101450.00;;;;5086173;28;20177;-41
2022/07/18 10:06:12;;;;;;;1.87;1.70;;;24.30;51.40;25.00;101443.00;;;;5086340;28;20184;-42
2022/07/18 10:08:38;;;;;;;2.37;1.80;;;24.30;51.40;25.00;101442.00;;;;5086022;28;20196;-42
2022/07/18 10:11:05;;;;;;;2.40;1.73;;;24.30;51.40;24.90;101440.00;;;;5085936;28;20180;-42
2022/07/18 10:13:32;;;;;;;1.93;1.73;;;24.30;51.30;25.10;101438.00;;;;5085961;28;20472;-42
2022/07/18 10:15:58;;;;;;;2.47;1.80;;;24.40;51.30;25.10;101436.00;;;;5086490;28;20196;-42
2022/07/18 10:18:25;;;;;;;2.37;1.80;;;24.40;51.50;25.10;101441.00;;;;5085906;28;20212;-42
2022/07/18 10:21:11;;;;;;;2.07;1.90;;;24.40;51.50;25.20;101436.00;;;;5086213;28;20215;-42
2022/07/18 10:23:44;;;;;;;1.70;1.60;;;24.40;51.60;25.20;101441.00;;;;5084726;28;20319;-42
2022/07/18 10:26:18;;;;;;;1.83;1.73;;;24.50;51.70;25.20;101437.00;;;;5084357;28;20565;-42
2022/07/18 10:28:59;;;;;;;2.23;1.73;;;24.50;51.70;25.20;101438.00;;;;5085354;28;20197;-42
2022/07/18 10:31:31;;;;;;;2.70;1.77;;;24.50;51.70;25.20;101437.00;;;;5091337;28;20172;-42
2022/07/18 10:34:11;;;;;;;2.10;1.87;;;24.50;51.70;25.30;101442.00;;;;5105443;28;20185;-42
2022/07/18 10:36:38;;;;;;;1.73;1.63;;;24.50;51.70;25.30;101448.00;;;;5087149;28;20334;-41
2022/07/18 10:39:05;;;;;;;1.97;1.80;;;24.60;51.80;25.30;101436.00;;;;5085184;28;20270;-42
2022/07/18 10:41:32;;;;;;;2.50;1.73;;;24.60;51.80;25.40;101440.00;;;;5085277;28;20171;-42
2022/07/18 10:43:58;;;;;;;1.60;1.50;;;24.60;51.80;25.40;101435.00;;;;5085654;28;20508;-41
2022/07/18 10:46:23;;;;;;;1.80;1.70;;;24.60;51.70;25.40;101429.00;;;;5084382;28;20165;-42
2022/07/18 10:48:51;;;;;;;4.45;1.90;;;24.70;51.80;25.50;101434.00;;;;5086237;28;20185;-41